Flight Track Log - Related Links

Times and Time Zones

All times are in EDT time to prevent confusion due to time zone crossing. See the N114EL flight status page for this flight to view local times or setup timezone preferences in your user account.

Time Position Orientation Groundspeed Altitude Reporting Facility
EDT Latitude Longitude Course Direction KTS MPH feet Rate Location/Type
Sun 01:12:55 PM 38.1233 -92.4486 42° Northeast 132 152 3,100  Level Kansas City Center
Sun 01:13:13 PM 38.1250 -92.4411 74° East 133 153 3,100 519 Level Kansas City Center
Sun 01:14:16 PM 38.1381 -92.4028 67° East 125 144 3,800 480 Climbing Kansas City Center
Sun 01:15:18 PM 38.1719 -92.3675 39° Northeast 132 152 4,100 293 Climbing Kansas City Center
Sun 01:16:19 PM 38.2072 -92.3372 34° Northeast 144 166 4,400 606 Climbing Kansas City Center
Sun 01:16:57 PM 38.2244 -92.3228 33° Northeast 118 136 5,100 677 Climbing Kansas City Center
Sun 01:17:00 PM 38.2817 -92.3350 38° Northeast  Level FlightAware Approximate
Sun 01:17:21 PM 38.2369 -92.3172 19° North 133 153 5,100  Level Kansas City Center
Sun 01:18:00 PM 38.3140 -92.3007 42° Northeast  Level FlightAware Approximate
Sun 01:18:25 PM 38.2686 -92.2872 37° Northeast 135 155 5,100  Level Kansas City Center
Sun 01:19:26 PM 38.3031 -92.2492 41° Northeast 152 175 5,000 -49 Descending Kansas City Center
Sun 01:20:27 PM 38.3392 -92.2142 37° Northeast 158 182 5,000 194 Level Kansas City Center
Sun 01:21:30 PM 38.3711 -92.1806 40° Northeast 155 178 5,400 525 Climbing Kansas City Center
Sun 01:21:47 PM 38.3808 -92.1653 51° Northeast 138 159 5,700 581 Climbing Kansas City Center
Sun 01:22:32 PM 38.4006 -92.1378 48° Northeast 137 158 6,000 385 Climbing Kansas City Center
Sun 01:23:36 PM 38.4186 -92.1019 57° Northeast 126 145 6,400 288 Climbing Kansas City Center
Sun 01:24:37 PM 38.4381 -92.0606 59° Northeast 133 153 6,600 347 Climbing Kansas City Center
Sun 01:25:37 PM 38.4736 -92.0403 24° Northeast 139 160 7,100 288 Climbing Kansas City Center
Sun 01:26:42 PM 38.5067 -92.0117 34° Northeast 141 162 7,200 -48 Climbing Kansas City Center
Sun 01:27:42 PM 38.5433 -91.9794 34° Northeast 152 175 7,000 -99 Descending Kansas City Center
Sun 01:28:43 PM 38.5758 -91.9406 43° Northeast 158 182 7,000 48 Level Kansas City Center
Sun 01:29:47 PM 38.6089 -91.8892 51° Northeast 155 178 7,100 48 Climbing Kansas City Center
Sun 01:30:47 PM 38.6397 -91.8481 46° Northeast 158 182 7,100  Level Kansas City Center
Sun 01:31:52 PM 38.6689 -91.8072 48° Northeast 157 181 7,100  Level Kansas City Center
Sun 01:32:52 PM 38.7000 -91.7669 45° Northeast 157 181 7,100  Level Kansas City Center
Sun 01:33:23 PM 38.7236 -91.7481 32° Northeast 163 188 7,100  Level Kansas City Center
Sun 01:33:56 PM 38.7383 -91.7347 35° Northeast 158 182 7,100  Level Kansas City Center
Sun 01:34:56 PM 38.7775 -91.7061 30° Northeast 159 183 7,100 -48 Level Kansas City Center
Sun 01:36:00 PM 38.8175 -91.6756 31° Northeast 162 186 7,000  Descending Kansas City Center
Sun 01:36:59 PM 38.8642 -91.6369 33° Northeast 161 185 7,100 49 Climbing Kansas City Center
Sun 01:38:02 PM 38.9017 -91.6072 32° Northeast 162 186 7,100  Level Kansas City Center
Sun 01:39:06 PM 38.9411 -91.5772 31° Northeast 162 186 7,100  Level Kansas City Center
Sun 01:40:07 PM 38.9811 -91.5481 30° Northeast 162 186 7,100 49 Level Kansas City Center
Sun 01:41:08 PM 39.0189 -91.5186 31° Northeast 163 188 7,200 290 Climbing Kansas City Center
Sun 01:42:11 PM 39.0589 -91.5022 18° North 161 185 7,700 532 Climbing Kansas City Center
Sun 01:43:12 PM 39.1006 -91.4881 15° North 142 163 8,300 528 Climbing Kansas City Center
Sun 01:44:16 PM 39.1344 -91.4761 15° North 134 154 8,800 336 Climbing Kansas City Center
Sun 01:45:17 PM 39.1689 -91.4647 14° North 132 152 9,000 144 Climbing Kansas City Center
Sun 01:46:21 PM 39.2078 -91.4492 17° North 133 153 9,100  Climbing Kansas City Center
Sun 01:47:22 PM 39.2478 -91.4283 22° Northeast 144 166 9,000  Descending Kansas City Center
Sun 01:48:22 PM 39.2883 -91.4047 24° Northeast 151 174 9,100 48 Climbing Kansas City Center
Sun 01:49:27 PM 39.3364 -91.3775 24° Northeast 153 176 9,100  Level Kansas City Center
Sun 01:50:27 PM 39.3761 -91.3547 24° Northeast 154 177 9,100  Level Kansas City Center
Sun 01:51:29 PM 39.4169 -91.3322 23° Northeast 154 177 9,100 -48 Level Kansas City Center
Sun 01:52:33 PM 39.4619 -91.3206 11° North 162 186 9,000  Descending Kansas City Center
Sun 01:53:33 PM 39.5039 -91.3047 16° North 163 188 9,100 49 Climbing Kansas City Center
Sun 01:54:36 PM 39.5467 -91.2914 14° North 161 185 9,100  Level Kansas City Center
Sun 01:55:38 PM 39.5972 -91.2744 14° North 160 184 9,100  Level Kansas City Center
Sun 01:56:41 PM 39.6406 -91.2578 16° North 160 184 9,100  Level Kansas City Center
Sun 01:57:43 PM 39.6825 -91.2369 21° North 160 184 9,100  Level Kansas City Center
Sun 01:58:44 PM 39.7247 -91.2197 17° North 160 184 9,100 48 Level Kansas City Center
Sun 01:59:47 PM 39.7661 -91.1944 25° Northeast 160 184 9,200 48 Climbing Kansas City Center
Sun 02:00:49 PM 39.8053 -91.1728 23° Northeast 160 184 9,200 49 Level Kansas City Center
Sun 02:01:50 PM 39.8547 -91.1472 22° Northeast 160 184 9,300 -97 Climbing Kansas City Center
Sun 02:02:53 PM 39.8947 -91.1242 24° Northeast 160 184 9,000 -146 Descending Kansas City Center
Sun 02:03:53 PM 39.9383 -91.1006 23° Northeast 163 188 9,000 -48 Level Kansas City Center
Sun 02:04:58 PM 39.9803 -91.0742 26° Northeast 167 192 8,900  Descending Kansas City Center
Sun 02:05:58 PM 40.0261 -91.0486 23° Northeast 156 180 9,000 49 Climbing Kansas City Center
Sun 02:07:00 PM 40.0683 -91.0264 22° Northeast 157 181 9,000 48 Level Kansas City Center
Sun 02:08:03 PM 40.1083 -91.0053 22° Northeast 158 182 9,100 48 Climbing Kansas City Center
Sun 02:09:05 PM 40.1497 -90.9836 22° Northeast 158 182 9,100  Level Kansas City Center
Sun 02:10:08 PM 40.1914 -90.9636 20° North 159 183 9,100 -48 Level Kansas City Center
Sun 02:11:09 PM 40.2389 -90.9389 22° Northeast 159 183 9,000  Descending Kansas City Center
Sun 02:12:10 PM 40.2756 -90.9056 35° Northeast 159 183 9,100 48 Climbing Kansas City Center
Sun 02:13:13 PM 40.3122 -90.8728 34° Northeast 159 183 9,100  Level Kansas City Center
Sun 02:14:14 PM 40.3503 -90.8406 33° Northeast 159 183 9,100 -43 Level Kansas City Center
Sun 02:15:32 PM 40.4025 -90.7958 33° Northeast 161 185 9,000  Descending Chicago Center
Sun 02:16:34 PM 40.4375 -90.7647 34° Northeast 157 181 9,100 194 Climbing Chicago Center
Sun 02:17:36 PM 40.4725 -90.7344 33° Northeast 155 178 9,400  Climbing Chicago Center
Sun 02:18:38 PM 40.4917 -90.6806 65° Northeast 165 190 9,100 -145 Descending Chicago Center
Sun 02:19:40 PM 40.5278 -90.6475 35° Northeast 160 184 9,100 -48 Level Chicago Center
Sun 02:20:42 PM 40.5686 -90.6153 31° Northeast 165 190 9,000 -48 Descending Chicago Center
Sun 02:21:44 PM 40.6114 -90.5739 36° Northeast 164 189 9,000  Level Chicago Center
Sun 02:22:46 PM 40.6475 -90.5414 34° Northeast 161 185 9,000  Level Chicago Center
Sun 02:23:48 PM 40.6750 -90.4950 52° Northeast 161 185 9,000  Level Chicago Center
Sun 02:24:50 PM 40.6897 -90.4408 70° East 160 184 9,000 26 Level Chicago Center
Sun 02:27:42 PM 40.7581 -90.3031 60° Northeast 160 184 9,100 26 Climbing Kansas City Center
Sun 02:28:44 PM 40.7772 -90.2508 64° Northeast 159 183 9,100  Level Kansas City Center
Sun 02:29:48 PM 40.7969 -90.1994 63° Northeast 159 183 9,100  Level Kansas City Center
Sun 02:30:48 PM 40.8211 -90.1383 62° Northeast 159 183 9,100  Level Kansas City Center
Sun 02:31:49 PM 40.8425 -90.0858 62° Northeast 159 183 9,100  Level Kansas City Center
Sun 02:33:06 PM 40.8675 -90.0250 61° Northeast 158 182 9,100  Level Chicago Center
Sun 02:34:08 PM 40.8892 -89.9736 61° Northeast 158 182 9,100  Level Chicago Center
Sun 02:35:10 PM 40.9108 -89.9219 61° Northeast 158 182 9,100  Level Chicago Center
Sun 02:36:12 PM 40.9331 -89.8603 64° Northeast 158 182 9,100  Level Chicago Center
Sun 02:37:14 PM 40.9489 -89.8058 69° East 158 182 9,100  Level Chicago Center
Sun 02:38:16 PM 40.9725 -89.7567 58° Northeast 157 181 9,100  Level Chicago Center
Sun 02:39:18 PM 40.9961 -89.7081 57° Northeast 157 181 9,100  Level Chicago Center
Sun 02:40:20 PM 41.0175 -89.6567 61° Northeast 157 181 9,100  Level Chicago Center
Sun 02:41:22 PM 41.0389 -89.6044 61° Northeast 158 182 9,100  Level Chicago Center
Sun 02:42:23 PM 41.0597 -89.5544 61° Northeast 158 182 9,100  Level Chicago Center
Sun 02:43:25 PM 41.0936 -89.5019 49° Northeast 157 181 9,100 -48 Level Chicago Center
Sun 02:44:27 PM 41.1289 -89.4633 39° Northeast 160 184 9,000  Descending Chicago Center
Sun 02:45:29 PM 41.1611 -89.4211 45° Northeast 164 189 9,100 48 Climbing Chicago Center
Sun 02:46:32 PM 41.1942 -89.3831 41° Northeast 161 185 9,100 -48 Level Chicago Center
Sun 02:47:34 PM 41.2250 -89.3394 47° Northeast 161 185 9,000 -48 Descending Chicago Center
Sun 02:48:36 PM 41.2558 -89.2956 47° Northeast 161 185 9,000 -48 Level Chicago Center
Sun 02:49:38 PM 41.2881 -89.2533 45° Northeast 161 185 8,900 -435 Descending Chicago Center
Sun 02:50:40 PM 41.3278 -89.1933 49° Northeast 176 203 8,100 -726 Descending Chicago Center
Sun 02:51:42 PM 41.3606 -89.1483 46° Northeast 177 204 7,400 -677 Descending Chicago Center
Sun 02:52:44 PM 41.3933 -89.0986 49° Northeast 177 204 6,700 -629 Descending Chicago Center
Sun 02:53:46 PM 41.4214 -89.0467 54° Northeast 177 204 6,100 -683 Descending Chicago Center
Sun 02:54:47 PM 41.4497 -88.9828 59° Northeast 169 194 5,300 -585 Descending Chicago Center
Sun 02:55:49 PM 41.4689 -88.9258 66° East 169 194 4,900 -145 Descending Chicago Center
Sun 02:56:51 PM 41.4875 -88.8767 63° Northeast 156 180 5,000  Climbing Chicago Center
Sun 02:57:53 PM 41.5078 -88.8225 63° Northeast 154 177 4,900  Descending Chicago Center
Sun 02:58:55 PM 41.5244 -88.7692 67° East 154 177 5,000 97 Climbing Chicago Center
Sun 02:59:57 PM 41.5439 -88.7136 65° Northeast 153 176 5,100 48 Climbing Chicago Center
Sun 03:00:59 PM 41.5619 -88.6603 66° East 155 178 5,100 -97 Level Chicago Center
Sun 03:02:01 PM 41.5814 -88.6064 64° Northeast 153 176 4,900 -242 Descending Chicago Center
Sun 03:03:03 PM 41.5981 -88.5553 66° East 148 170 4,600 -532 Descending Chicago Center
Sun 03:04:05 PM 41.6167 -88.4967 67° East 157 181 3,800 -726 Descending Chicago Center
Sun 03:05:07 PM 41.6350 -88.4475 63° Northeast 153 176 3,100 -387 Descending Chicago Center
Sun 03:06:09 PM 41.6508 -88.4011 65° Northeast 141 162 3,000  Descending Chicago Center
Sun 03:07:11 PM 41.6667 -88.3583 64° Northeast 140 161 3,100 97 Climbing Chicago Center
Sun 03:09:00 PM 41.7043 -88.2689 61° Northeast  Level FlightAware Approximate
Sun 03:16:00 PM 41.7333 -88.2000 62° Northeast  Level FlightAware Approximate
Sun 03:17:00 PM 41.7347 -88.2034 North  Level Estimated

Login

Don't have an account? Register now (free) for customized features, flight alerts, and more!